Hickory Flat, MS (38633)

2:31 AM CDT on May 25, 2015 (GMT -0500)
PHQ | | Change Station
CLOSE
Current Station
Personal Weather Station
Location: Ashland, MS
Elevation: 630 ft
Nearby Weather Stations

Elev 630 ft 34.83 °N, 89.17 °W | Updated 8 minutes ago

Overcast
Overcast
67.3 °F
Feels Like 67.3 °F
N
2.2
Wind Variable Wind from SSE

Today
High -- | Low -- °F
--% Chance of Precip.
Yesterday
High -- | Low -- °F
Precip. -- in
5:47 AM 7:59 PM
Waxing Crescent, 46% visible
Pressure 30.07 in
Visibility 9.0 miles
Clouds Scattered Clouds 100 ft
Mostly Cloudy 2800 ft
Mostly Cloudy 9000 ft
Dew Point 67 °F
Humidity 99%
Rainfall 1.03 in
Snow Depth Not available.
UV 0 out of 12
Pollen 6.60 out of 12
Air Quality Not available.
Flu Activity No Activity
METAR KUOX 250715Z AUTO 15005KT 9SM SCT001 BKN028 BKN090 19/19 A3007 RMK AO2 PWINO PNO

More Conditions Fewer Conditions

Pressure 30.07 in
Visibility 9.0 miles
Clouds Scattered Clouds 100 ft
Mostly Cloudy 2800 ft
Mostly Cloudy 9000 ft
Dew Point 67 °F
Humidity 99%
Rainfall 1.03 in
Snow Depth Not available.
UV 0 out of 12
Pollen 6.60 out of 12
Air Quality Not available.
Flu Activity No Activity
METAR KUOX 250715Z AUTO 15005KT 9SM SCT001 BKN028 BKN090 19/19 A3007 RMK AO2 PWINO PNO

More Conditions Fewer Conditions

10-Day Weather Forecast

Almanac

Astronomy

May. 25, 2015 Rise Set
Actual Time
Civil Twilight
Nautical Twilight
Astronomical Twilight
Moon
Length of Visible Light
Length of Day
Tomorrow will be .
, % of the Moon is Illuminated

Today's Extremes

State Highs State Lows

Community

WunderPhotos

Upload Photos

1,823,959 photos uploaded!

WunderBlogs® & News

Nearby

Air Quality

  Air Quality AQ Index Pollutant
Not available.

Snow Depth

Station Depth Elevation

Earthquake Activity

City Distance Mag. Time & Date
Minimum magnitude displayed is 2.5.

Coastal Water Temperatures

Place Temperature

Stations

Nearby Weather Stations

Station Location Temp. Windchill Dew Point Humidity Wind Precip. Elev Updated Type